Kodiak, AK

6:49 AM AKDT on September 26, 2016 (GMT -0800)
Pillar Mountain | | Change Station

Elev 1204 ft 57.79 °N, 152.44 °W | Updated 6 minutes ago

Partly Cloudy
Partly Cloudy
38.8 °F
Feels Like 39 °F
N
2.2
Wind Variable Wind from West

Today
High -- | Low -- °F
--% Chance of Precip.
Yesterday
High -- | Low -- °F
Precip. -- in
Pressure 29.90 in
Visibility 10.0 miles
Clouds Few 5500 ft
Windchill 39 °F
Dew Point 31 °F
Humidity 72%
Rainfall 0.00 in
Snow Depth Not available.
8:04 AM 7:55 PM
Waning Crescent, 18% visible
METAR PADQ 261353Z 25006KT 10SM FEW055 01/00 A2990 RMK AO2 SLP125 T00110000
Pressure 29.90 in
Visibility 10.0 miles
Clouds Few 5500 ft
Windchill 39 °F
Dew Point 31 °F
Humidity 72%
Rainfall 0.00 in
Snow Depth Not available.
8:04 AM 7:55 PM
Waning Crescent, 18% visible
METAR PADQ 261353Z 25006KT 10SM FEW055 01/00 A2990 RMK AO2 SLP125 T00110000

10-Day Weather Forecast

Almanac

Astronomy

Sep. 26, 2016 Rise Set
Actual Time
Civil Twilight
Nautical Twilight
Astronomical Twilight
Moon
Length of Visible Light
Length of Day
Tomorrow will be .
, % of the Moon is Illuminated

Today's Extremes

State Highs State Lows

Community

WunderPhotos

Upload Photos

1,941,887 photos uploaded!

WunderBlog® & News

Nearby

Air Quality

  Air Quality AQ Index Pollutant
Not available.

Snow Depth

Station Depth Elevation

Earthquake Activity

City Distance Mag. Time & Date
Minimum magnitude displayed is 2.5.

Coastal Water Temperatures

Place Temperature

Stations

Nearby Weather Stations

Station Location Temp. Windchill Dew Point Humidity Wind Precip. Elev Updated Type
                   

Watches & Warnings

There are currently no watches in effect.